sensor_id;sensor_type;location;lat;lon;timestamp;P1;durP1;ratioP1;P2;durP2;ratioP2
15708;SDS011;7954;51.914;8.420;2023-02-05T00:02:01;3.20;;;2.93;;
15708;SDS011;7954;51.914;8.420;2023-02-05T00:04:29;3.07;;;2.70;;
15708;SDS011;7954;51.914;8.420;2023-02-05T00:06:58;2.83;;;2.60;;
15708;SDS011;7954;51.914;8.420;2023-02-05T00:09:26;2.90;;;2.60;;
15708;SDS011;7954;51.914;8.420;2023-02-05T00:11:54;2.80;;;2.60;;
15708;SDS011;7954;51.914;8.420;2023-02-05T00:14:22;2.70;;;2.50;;
15708;SDS011;7954;51.914;8.420;2023-02-05T00:16:52;2.33;;;2.13;;
15708;SDS011;7954;51.914;8.420;2023-02-05T00:19:20;2.60;;;2.40;;
15708;SDS011;7954;51.914;8.420;2023-02-05T00:21:48;2.57;;;2.37;;
15708;SDS011;7954;51.914;8.420;2023-02-05T00:24:17;3.23;;;2.30;;
15708;SDS011;7954;51.914;8.420;2023-02-05T00:26:45;2.40;;;2.20;;
15708;SDS011;7954;51.914;8.420;2023-02-05T00:29:13;2.03;;;1.90;;
15708;SDS011;7954;51.914;8.420;2023-02-05T00:31:41;2.47;;;2.27;;
15708;SDS011;7954;51.914;8.420;2023-02-05T00:34:09;2.30;;;2.10;;
15708;SDS011;7954;51.914;8.420;2023-02-05T00:36:37;2.40;;;2.10;;
15708;SDS011;7954;51.914;8.420;2023-02-05T00:39:05;2.77;;;2.57;;
15708;SDS011;7954;51.914;8.420;2023-02-05T00:41:35;2.77;;;2.57;;
15708;SDS011;7954;51.914;8.420;2023-02-05T00:44:04;2.87;;;2.57;;
15708;SDS011;7954;51.914;8.420;2023-02-05T00:46:33;4.80;;;2.60;;
15708;SDS011;7954;51.914;8.420;2023-02-05T00:49:01;3.17;;;2.20;;
15708;SDS011;7954;51.914;8.420;2023-02-05T00:51:29;2.57;;;2.37;;
15708;SDS011;7954;51.914;8.420;2023-02-05T00:53:57;2.80;;;2.30;;
15708;SDS011;7954;51.914;8.420;2023-02-05T00:56:25;2.60;;;2.40;;
15708;SDS011;7954;51.914;8.420;2023-02-05T00:58:54;2.57;;;2.37;;
15708;SDS011;7954;51.914;8.420;2023-02-05T01:01:22;2.40;;;2.20;;
15708;SDS011;7954;51.914;8.420;2023-02-05T01:03:50;2.67;;;2.47;;
15708;SDS011;7954;51.914;8.420;2023-02-05T01:06:18;2.67;;;2.30;;
15708;SDS011;7954;51.914;8.420;2023-02-05T01:08:47;2.40;;;2.20;;
15708;SDS011;7954;51.914;8.420;2023-02-05T01:11:15;2.57;;;2.37;;
15708;SDS011;7954;51.914;8.420;2023-02-05T01:13:43;5.50;;;3.60;;
15708;SDS011;7954;51.914;8.420;2023-02-05T01:16:13;3.30;;;3.00;;
15708;SDS011;7954;51.914;8.420;2023-02-05T01:18:41;3.27;;;2.70;;
15708;SDS011;7954;51.914;8.420;2023-02-05T01:21:08;3.10;;;2.80;;
15708;SDS011;7954;51.914;8.420;2023-02-05T01:23:36;4.33;;;3.23;;
15708;SDS011;7954;51.914;8.420;2023-02-05T01:26:04;5.70;;;4.13;;
15708;SDS011;7954;51.914;8.420;2023-02-05T01:28:33;4.33;;;3.63;;
15708;SDS011;7954;51.914;8.420;2023-02-05T01:31:00;6.10;;;4.80;;
15708;SDS011;7954;51.914;8.420;2023-02-05T01:33:30;5.47;;;4.33;;
15708;SDS011;7954;51.914;8.420;2023-02-05T01:35:59;4.67;;;4.27;;
15708;SDS011;7954;51.914;8.420;2023-02-05T01:38:27;4.37;;;3.80;;
15708;SDS011;7954;51.914;8.420;2023-02-05T01:40:54;4.07;;;3.67;;
15708;SDS011;7954;51.914;8.420;2023-02-05T01:43:25;3.47;;;3.00;;
15708;SDS011;7954;51.914;8.420;2023-02-05T01:48:49;2.93;;;2.57;;
15708;SDS011;7954;51.914;8.420;2023-02-05T01:51:20;2.50;;;2.30;;
15708;SDS011;7954;51.914;8.420;2023-02-05T01:53:50;2.83;;;2.47;;
15708;SDS011;7954;51.914;8.420;2023-02-05T01:56:19;2.90;;;2.53;;
15708;SDS011;7954;51.914;8.420;2023-02-05T01:58:49;2.67;;;2.47;;
15708;SDS011;7954;51.914;8.420;2023-02-05T02:01:20;3.00;;;2.40;;
15708;SDS011;7954;51.914;8.420;2023-02-05T02:03:50;3.77;;;2.53;;
15708;SDS011;7954;51.914;8.420;2023-02-05T02:06:21;2.73;;;2.40;;
15708;SDS011;7954;51.914;8.420;2023-02-05T02:08:49;2.60;;;2.40;;
15708;SDS011;7954;51.914;8.420;2023-02-05T02:11:18;2.33;;;2.13;;
15708;SDS011;7954;51.914;8.420;2023-02-05T02:13:49;2.63;;;2.43;;
15708;SDS011;7954;51.914;8.420;2023-02-05T02:16:20;3.10;;;2.80;;
15708;SDS011;7954;51.914;8.420;2023-02-05T02:18:50;2.80;;;2.50;;
15708;SDS011;7954;51.914;8.420;2023-02-05T02:21:26;3.33;;;2.50;;
15708;SDS011;7954;51.914;8.420;2023-02-05T02:24:15;4.10;;;2.70;;
15708;SDS011;7954;51.914;8.420;2023-02-05T02:27:05;2.40;;;2.20;;
15708;SDS011;7954;51.914;8.420;2023-02-05T02:29:56;2.70;;;2.50;;
15708;SDS011;7954;51.914;8.420;2023-02-05T02:32:30;3.47;;;2.73;;
15708;SDS011;7954;51.914;8.420;2023-02-05T02:35:04;2.80;;;2.60;;
15708;SDS011;7954;51.914;8.420;2023-02-05T02:37:35;2.73;;;2.50;;
15708;SDS011;7954;51.914;8.420;2023-02-05T02:40:08;2.67;;;2.33;;
15708;SDS011;7954;51.914;8.420;2023-02-05T02:42:44;2.90;;;2.53;;
15708;SDS011;7954;51.914;8.420;2023-02-05T02:45:16;2.70;;;2.50;;
15708;SDS011;7954;51.914;8.420;2023-02-05T02:47:48;2.60;;;2.33;;
15708;SDS011;7954;51.914;8.420;2023-02-05T02:50:22;2.90;;;2.60;;
15708;SDS011;7954;51.914;8.420;2023-02-05T02:52:58;2.53;;;2.30;;
15708;SDS011;7954;51.914;8.420;2023-02-05T02:55:29;2.53;;;2.33;;
15708;SDS011;7954;51.914;8.420;2023-02-05T02:58:03;2.77;;;2.30;;
15708;SDS011;7954;51.914;8.420;2023-02-05T03:00:35;3.43;;;2.27;;
15708;SDS011;7954;51.914;8.420;2023-02-05T03:03:06;2.70;;;2.20;;
15708;SDS011;7954;51.914;8.420;2023-02-05T03:05:36;3.17;;;2.80;;
15708;SDS011;7954;51.914;8.420;2023-02-05T03:08:06;2.47;;;2.20;;
15708;SDS011;7954;51.914;8.420;2023-02-05T03:10:41;2.53;;;2.30;;
15708;SDS011;7954;51.914;8.420;2023-02-05T03:13:14;3.33;;;2.47;;
15708;SDS011;7954;51.914;8.420;2023-02-05T03:15:42;3.97;;;2.30;;
15708;SDS011;7954;51.914;8.420;2023-02-05T03:18:11;2.37;;;2.17;;
15708;SDS011;7954;51.914;8.420;2023-02-05T03:20:42;2.40;;;2.20;;
15708;SDS011;7954;51.914;8.420;2023-02-05T03:23:15;2.60;;;2.40;;
15708;SDS011;7954;51.914;8.420;2023-02-05T03:25:43;4.33;;;2.50;;
15708;SDS011;7954;51.914;8.420;2023-02-05T03:28:11;3.37;;;2.67;;
15708;SDS011;7954;51.914;8.420;2023-02-05T03:30:45;2.50;;;2.30;;
15708;SDS011;7954;51.914;8.420;2023-02-05T03:33:24;3.63;;;2.60;;
15708;SDS011;7954;51.914;8.420;2023-02-05T03:36:08;2.80;;;2.47;;
15708;SDS011;7954;51.914;8.420;2023-02-05T03:38:45;2.87;;;2.27;;
15708;SDS011;7954;51.914;8.420;2023-02-05T03:41:25;2.40;;;2.00;;
15708;SDS011;7954;51.914;8.420;2023-02-05T03:44:16;2.50;;;2.20;;
15708;SDS011;7954;51.914;8.420;2023-02-05T03:46:57;4.00;;;2.20;;
15708;SDS011;7954;51.914;8.420;2023-02-05T03:49:29;2.57;;;2.27;;
15708;SDS011;7954;51.914;8.420;2023-02-05T03:52:06;2.27;;;2.07;;
15708;SDS011;7954;51.914;8.420;2023-02-05T03:54:42;2.43;;;2.23;;
15708;SDS011;7954;51.914;8.420;2023-02-05T03:57:17;2.33;;;2.13;;
15708;SDS011;7954;51.914;8.420;2023-02-05T03:59:48;2.40;;;2.20;;
15708;SDS011;7954;51.914;8.420;2023-02-05T04:02:18;2.67;;;2.30;;
15708;SDS011;7954;51.914;8.420;2023-02-05T04:04:48;2.30;;;2.10;;
15708;SDS011;7954;51.914;8.420;2023-02-05T04:07:16;2.50;;;2.23;;
15708;SDS011;7954;51.914;8.420;2023-02-05T04:09:44;3.93;;;2.37;;
15708;SDS011;7954;51.914;8.420;2023-02-05T04:12:12;2.90;;;2.70;;
15708;SDS011;7954;51.914;8.420;2023-02-05T04:14:40;3.20;;;2.10;;
15708;SDS011;7954;51.914;8.420;2023-02-05T04:17:09;2.80;;;2.30;;
15708;SDS011;7954;51.914;8.420;2023-02-05T04:19:39;2.77;;;2.40;;
15708;SDS011;7954;51.914;8.420;2023-02-05T04:22:07;3.10;;;2.37;;
15708;SDS011;7954;51.914;8.420;2023-02-05T04:24:36;3.20;;;2.33;;
15708;SDS011;7954;51.914;8.420;2023-02-05T04:27:04;3.00;;;2.10;;
15708;SDS011;7954;51.914;8.420;2023-02-05T04:29:32;2.97;;;2.20;;
15708;SDS011;7954;51.914;8.420;2023-02-05T04:32:01;4.07;;;2.30;;
15708;SDS011;7954;51.914;8.420;2023-02-05T04:34:28;2.20;;;2.00;;
15708;SDS011;7954;51.914;8.420;2023-02-05T04:36:58;2.23;;;2.03;;
15708;SDS011;7954;51.914;8.420;2023-02-05T04:39:26;3.73;;;2.53;;
15708;SDS011;7954;51.914;8.420;2023-02-05T04:41:55;2.63;;;2.23;;
15708;SDS011;7954;51.914;8.420;2023-02-05T04:44:22;2.20;;;2.00;;
15708;SDS011;7954;51.914;8.420;2023-02-05T04:46:51;2.53;;;2.20;;
15708;SDS011;7954;51.914;8.420;2023-02-05T04:49:19;2.43;;;2.23;;
15708;SDS011;7954;51.914;8.420;2023-02-05T04:51:46;2.47;;;2.13;;
15708;SDS011;7954;51.914;8.420;2023-02-05T04:54:15;2.47;;;2.13;;
15708;SDS011;7954;51.914;8.420;2023-02-05T04:56:49;3.27;;;2.50;;
15708;SDS011;7954;51.914;8.420;2023-02-05T04:59:16;4.77;;;2.20;;
15708;SDS011;7954;51.914;8.420;2023-02-05T05:01:44;2.73;;;2.10;;
15708;SDS011;7954;51.914;8.420;2023-02-05T05:04:12;2.87;;;2.20;;
15708;SDS011;7954;51.914;8.420;2023-02-05T05:06:40;2.97;;;2.60;;
15708;SDS011;7954;51.914;8.420;2023-02-05T05:09:07;2.33;;;2.10;;
15708;SDS011;7954;51.914;8.420;2023-02-05T05:11:37;2.67;;;2.47;;
15708;SDS011;7954;51.914;8.420;2023-02-05T05:14:05;3.17;;;2.33;;
15708;SDS011;7954;51.914;8.420;2023-02-05T05:16:33;2.60;;;2.40;;
15708;SDS011;7954;51.914;8.420;2023-02-05T05:19:01;3.27;;;2.40;;
15708;SDS011;7954;51.914;8.420;2023-02-05T05:21:29;2.80;;;2.50;;
15708;SDS011;7954;51.914;8.420;2023-02-05T05:23:57;3.53;;;2.57;;
15708;SDS011;7954;51.914;8.420;2023-02-05T05:26:26;2.47;;;2.10;;
15708;SDS011;7954;51.914;8.420;2023-02-05T05:28:56;4.77;;;2.70;;
15708;SDS011;7954;51.914;8.420;2023-02-05T05:31:24;3.67;;;2.40;;
15708;SDS011;7954;51.914;8.420;2023-02-05T05:33:52;3.70;;;3.10;;
15708;SDS011;7954;51.914;8.420;2023-02-05T05:36:22;3.80;;;3.40;;
15708;SDS011;7954;51.914;8.420;2023-02-05T05:38:50;2.90;;;2.60;;
15708;SDS011;7954;51.914;8.420;2023-02-05T05:41:19;3.40;;;2.90;;
15708;SDS011;7954;51.914;8.420;2023-02-05T05:44:07;2.83;;;2.53;;
15708;SDS011;7954;51.914;8.420;2023-02-05T05:46:37;2.70;;;2.50;;
15708;SDS011;7954;51.914;8.420;2023-02-05T05:49:05;4.60;;;2.67;;
15708;SDS011;7954;51.914;8.420;2023-02-05T05:51:34;3.67;;;2.60;;
15708;SDS011;7954;51.914;8.420;2023-02-05T05:54:03;3.37;;;2.57;;
15708;SDS011;7954;51.914;8.420;2023-02-05T05:56:32;4.93;;;3.23;;
15708;SDS011;7954;51.914;8.420;2023-02-05T05:59:01;4.33;;;3.53;;
15708;SDS011;7954;51.914;8.420;2023-02-05T06:01:30;3.13;;;2.60;;
15708;SDS011;7954;51.914;8.420;2023-02-05T06:03:57;3.73;;;3.03;;
15708;SDS011;7954;51.914;8.420;2023-02-05T06:06:29;3.27;;;2.50;;
15708;SDS011;7954;51.914;8.420;2023-02-05T06:08:56;3.00;;;2.70;;
15708;SDS011;7954;51.914;8.420;2023-02-05T06:11:27;6.23;;;4.63;;
15708;SDS011;7954;51.914;8.420;2023-02-05T06:13:54;5.47;;;4.73;;
15708;SDS011;7954;51.914;8.420;2023-02-05T06:16:22;12.03;;;9.17;;
15708;SDS011;7954;51.914;8.420;2023-02-05T06:18:51;10.57;;;8.07;;
15708;SDS011;7954;51.914;8.420;2023-02-05T06:21:19;22.07;;;15.80;;
15708;SDS011;7954;51.914;8.420;2023-02-05T06:23:47;19.23;;;14.70;;
15708;SDS011;7954;51.914;8.420;2023-02-05T06:26:16;13.13;;;10.43;;
15708;SDS011;7954;51.914;8.420;2023-02-05T06:28:44;10.37;;;6.60;;
15708;SDS011;7954;51.914;8.420;2023-02-05T06:31:12;7.23;;;5.50;;
15708;SDS011;7954;51.914;8.420;2023-02-05T06:33:40;14.63;;;10.90;;
15708;SDS011;7954;51.914;8.420;2023-02-05T06:36:11;11.13;;;8.53;;
15708;SDS011;7954;51.914;8.420;2023-02-05T06:38:40;40.97;;;28.93;;
15708;SDS011;7954;51.914;8.420;2023-02-05T06:41:08;17.90;;;14.03;;
15708;SDS011;7954;51.914;8.420;2023-02-05T06:43:36;9.93;;;8.50;;
15708;SDS011;7954;51.914;8.420;2023-02-05T06:46:04;7.23;;;6.47;;
15708;SDS011;7954;51.914;8.420;2023-02-05T06:48:32;5.13;;;3.40;;
15708;SDS011;7954;51.914;8.420;2023-02-05T06:51:00;3.60;;;2.93;;
15708;SDS011;7954;51.914;8.420;2023-02-05T06:53:29;5.70;;;3.50;;
15708;SDS011;7954;51.914;8.420;2023-02-05T06:55:58;5.37;;;3.37;;
15708;SDS011;7954;51.914;8.420;2023-02-05T06:58:26;5.13;;;3.20;;
15708;SDS011;7954;51.914;8.420;2023-02-05T07:00:54;5.23;;;3.80;;
15708;SDS011;7954;51.914;8.420;2023-02-05T07:03:22;7.60;;;5.73;;
15708;SDS011;7954;51.914;8.420;2023-02-05T07:05:50;13.77;;;11.57;;
15708;SDS011;7954;51.914;8.420;2023-02-05T07:08:17;12.90;;;10.10;;
15708;SDS011;7954;51.914;8.420;2023-02-05T07:10:47;8.60;;;6.77;;
15708;SDS011;7954;51.914;8.420;2023-02-05T07:13:16;6.30;;;4.73;;
15708;SDS011;7954;51.914;8.420;2023-02-05T07:15:43;5.37;;;3.47;;
15708;SDS011;7954;51.914;8.420;2023-02-05T07:18:12;5.13;;;3.53;;
15708;SDS011;7954;51.914;8.420;2023-02-05T07:20:40;8.43;;;4.30;;
15708;SDS011;7954;51.914;8.420;2023-02-05T07:23:08;5.27;;;3.90;;
15708;SDS011;7954;51.914;8.420;2023-02-05T07:25:36;4.73;;;3.63;;
15708;SDS011;7954;51.914;8.420;2023-02-05T07:28:06;5.77;;;3.80;;
15708;SDS011;7954;51.914;8.420;2023-02-05T07:30:35;4.83;;;3.53;;
15708;SDS011;7954;51.914;8.420;2023-02-05T07:33:03;6.43;;;4.10;;
15708;SDS011;7954;51.914;8.420;2023-02-05T07:35:32;6.10;;;5.00;;
15708;SDS011;7954;51.914;8.420;2023-02-05T07:38:03;10.83;;;8.00;;
15708;SDS011;7954;51.914;8.420;2023-02-05T07:40:30;14.43;;;11.20;;
15708;SDS011;7954;51.914;8.420;2023-02-05T07:42:58;12.57;;;10.27;;
15708;SDS011;7954;51.914;8.420;2023-02-05T07:45:27;12.23;;;8.33;;
15708;SDS011;7954;51.914;8.420;2023-02-05T07:47:55;7.70;;;6.27;;
15708;SDS011;7954;51.914;8.420;2023-02-05T07:50:23;10.00;;;7.73;;
15708;SDS011;7954;51.914;8.420;2023-02-05T07:52:52;11.40;;;8.33;;
15708;SDS011;7954;51.914;8.420;2023-02-05T07:55:20;8.23;;;6.90;;
15708;SDS011;7954;51.914;8.420;2023-02-05T07:57:48;9.00;;;7.47;;
15708;SDS011;7954;51.914;8.420;2023-02-05T08:00:16;9.93;;;7.47;;
15708;SDS011;7954;51.914;8.420;2023-02-05T08:02:47;8.50;;;7.27;;
15708;SDS011;7954;51.914;8.420;2023-02-05T08:05:15;9.80;;;8.30;;
15708;SDS011;7954;51.914;8.420;2023-02-05T08:07:44;7.97;;;6.63;;
15708;SDS011;7954;51.914;8.420;2023-02-05T08:10:12;9.67;;;7.77;;
15708;SDS011;7954;51.914;8.420;2023-02-05T08:12:41;10.70;;;7.07;;
15708;SDS011;7954;51.914;8.420;2023-02-05T08:15:09;7.17;;;5.80;;
15708;SDS011;7954;51.914;8.420;2023-02-05T08:17:38;6.47;;;5.67;;
15708;SDS011;7954;51.914;8.420;2023-02-05T08:20:10;7.80;;;5.47;;
15708;SDS011;7954;51.914;8.420;2023-02-05T08:22:39;6.70;;;6.00;;
15708;SDS011;7954;51.914;8.420;2023-02-05T08:25:09;8.67;;;7.77;;
15708;SDS011;7954;51.914;8.420;2023-02-05T08:27:40;7.33;;;5.43;;
15708;SDS011;7954;51.914;8.420;2023-02-05T08:30:10;5.67;;;5.00;;
15708;SDS011;7954;51.914;8.420;2023-02-05T08:32:39;14.20;;;11.50;;
15708;SDS011;7954;51.914;8.420;2023-02-05T08:35:07;32.57;;;24.97;;
15708;SDS011;7954;51.914;8.420;2023-02-05T08:37:36;38.00;;;28.33;;
15708;SDS011;7954;51.914;8.420;2023-02-05T08:40:04;20.33;;;15.83;;
15708;SDS011;7954;51.914;8.420;2023-02-05T08:42:33;9.23;;;8.20;;
15708;SDS011;7954;51.914;8.420;2023-02-05T08:45:01;6.40;;;5.80;;
15708;SDS011;7954;51.914;8.420;2023-02-05T08:47:31;5.30;;;4.80;;
15708;SDS011;7954;51.914;8.420;2023-02-05T08:49:58;6.93;;;5.90;;
15708;SDS011;7954;51.914;8.420;2023-02-05T08:52:27;6.37;;;5.13;;
15708;SDS011;7954;51.914;8.420;2023-02-05T08:54:56;5.90;;;5.17;;
15708;SDS011;7954;51.914;8.420;2023-02-05T08:57:25;6.17;;;5.13;;
15708;SDS011;7954;51.914;8.420;2023-02-05T08:59:55;5.83;;;4.60;;
15708;SDS011;7954;51.914;8.420;2023-02-05T09:02:23;7.00;;;5.10;;
15708;SDS011;7954;51.914;8.420;2023-02-05T09:04:55;5.47;;;4.53;;
15708;SDS011;7954;51.914;8.420;2023-02-05T09:07:36;5.97;;;4.27;;
15708;SDS011;7954;51.914;8.420;2023-02-05T09:10:06;5.37;;;4.47;;
15708;SDS011;7954;51.914;8.420;2023-02-05T09:12:35;6.40;;;4.93;;
15708;SDS011;7954;51.914;8.420;2023-02-05T09:15:04;6.57;;;5.23;;
15708;SDS011;7954;51.914;8.420;2023-02-05T09:17:32;6.97;;;4.90;;
15708;SDS011;7954;51.914;8.420;2023-02-05T09:20:00;5.50;;;4.73;;
15708;SDS011;7954;51.914;8.420;2023-02-05T09:22:28;6.93;;;5.43;;
15708;SDS011;7954;51.914;8.420;2023-02-05T09:24:56;8.47;;;6.50;;
15708;SDS011;7954;51.914;8.420;2023-02-05T09:27:25;6.00;;;5.40;;
15708;SDS011;7954;51.914;8.420;2023-02-05T09:29:53;7.00;;;5.73;;
15708;SDS011;7954;51.914;8.420;2023-02-05T09:32:21;8.13;;;5.90;;
15708;SDS011;7954;51.914;8.420;2023-02-05T09:34:49;6.63;;;5.53;;
15708;SDS011;7954;51.914;8.420;2023-02-05T09:37:17;7.57;;;6.20;;
15708;SDS011;7954;51.914;8.420;2023-02-05T09:39:45;8.40;;;6.23;;
15708;SDS011;7954;51.914;8.420;2023-02-05T09:42:36;6.53;;;5.77;;
15708;SDS011;7954;51.914;8.420;2023-02-05T09:45:14;10.20;;;8.33;;
15708;SDS011;7954;51.914;8.420;2023-02-05T09:47:55;9.90;;;8.90;;
15708;SDS011;7954;51.914;8.420;2023-02-05T09:50:32;10.70;;;9.10;;
15708;SDS011;7954;51.914;8.420;2023-02-05T09:53:03;8.50;;;6.63;;
15708;SDS011;7954;51.914;8.420;2023-02-05T09:55:36;7.30;;;6.33;;
15708;SDS011;7954;51.914;8.420;2023-02-05T09:58:12;9.50;;;7.70;;
15708;SDS011;7954;51.914;8.420;2023-02-05T10:00:44;8.67;;;7.60;;
15708;SDS011;7954;51.914;8.420;2023-02-05T10:03:18;9.03;;;7.30;;
15708;SDS011;7954;51.914;8.420;2023-02-05T10:05:57;12.70;;;11.40;;
15708;SDS011;7954;51.914;8.420;2023-02-05T10:08:39;14.63;;;13.13;;
15708;SDS011;7954;51.914;8.420;2023-02-05T10:11:15;12.53;;;11.33;;
15708;SDS011;7954;51.914;8.420;2023-02-05T10:13:52;10.97;;;9.87;;
15708;SDS011;7954;51.914;8.420;2023-02-05T10:16:40;12.37;;;11.20;;
15708;SDS011;7954;51.914;8.420;2023-02-05T10:19:22;13.63;;;11.97;;
15708;SDS011;7954;51.914;8.420;2023-02-05T10:22:06;11.63;;;10.43;;
15708;SDS011;7954;51.914;8.420;2023-02-05T10:24:45;11.80;;;10.03;;
15708;SDS011;7954;51.914;8.420;2023-02-05T10:27:26;10.30;;;9.13;;
15708;SDS011;7954;51.914;8.420;2023-02-05T10:30:09;8.70;;;7.33;;
15708;SDS011;7954;51.914;8.420;2023-02-05T10:32:44;12.97;;;11.33;;
15708;SDS011;7954;51.914;8.420;2023-02-05T10:35:21;13.67;;;12.13;;
15708;SDS011;7954;51.914;8.420;2023-02-05T10:37:52;16.37;;;13.47;;
15708;SDS011;7954;51.914;8.420;2023-02-05T10:40:23;17.37;;;14.67;;
15708;SDS011;7954;51.914;8.420;2023-02-05T10:42:56;20.07;;;17.23;;
15708;SDS011;7954;51.914;8.420;2023-02-05T10:45:29;16.47;;;13.10;;
15708;SDS011;7954;51.914;8.420;2023-02-05T10:48:04;10.40;;;9.30;;
15708;SDS011;7954;51.914;8.420;2023-02-05T10:50:47;22.47;;;17.33;;
15708;SDS011;7954;51.914;8.420;2023-02-05T10:53:20;26.50;;;21.43;;
15708;SDS011;7954;51.914;8.420;2023-02-05T10:55:50;14.33;;;12.63;;
15708;SDS011;7954;51.914;8.420;2023-02-05T11:01:05;6.67;;;6.07;;
15708;SDS011;7954;51.914;8.420;2023-02-05T11:03:38;8.20;;;7.40;;
15708;SDS011;7954;51.914;8.420;2023-02-05T11:06:08;6.70;;;6.00;;
15708;SDS011;7954;51.914;8.420;2023-02-05T11:08:37;6.67;;;6.03;;
15708;SDS011;7954;51.914;8.420;2023-02-05T11:11:10;9.77;;;8.77;;
15708;SDS011;7954;51.914;8.420;2023-02-05T11:13:49;7.20;;;6.50;;
15708;SDS011;7954;51.914;8.420;2023-02-05T11:16:22;7.40;;;6.70;;
15708;SDS011;7954;51.914;8.420;2023-02-05T11:18:54;7.10;;;6.50;;
15708;SDS011;7954;51.914;8.420;2023-02-05T11:21:26;7.03;;;6.33;;
15708;SDS011;7954;51.914;8.420;2023-02-05T11:24:23;7.73;;;6.93;;
15708;SDS011;7954;51.914;8.420;2023-02-05T11:27:18;7.87;;;7.10;;
15708;SDS011;7954;51.914;8.420;2023-02-05T11:29:52;6.77;;;6.17;;
15708;SDS011;7954;51.914;8.420;2023-02-05T11:32:28;7.43;;;6.73;;
15708;SDS011;7954;51.914;8.420;2023-02-05T11:35:08;6.07;;;5.57;;
15708;SDS011;7954;51.914;8.420;2023-02-05T11:37:43;6.47;;;5.87;;
15708;SDS011;7954;51.914;8.420;2023-02-05T11:40:17;5.80;;;5.30;;
15708;SDS011;7954;51.914;8.420;2023-02-05T11:42:47;5.30;;;4.80;;
15708;SDS011;7954;51.914;8.420;2023-02-05T11:45:26;6.87;;;6.27;;
15708;SDS011;7954;51.914;8.420;2023-02-05T11:47:56;6.90;;;6.30;;
15708;SDS011;7954;51.914;8.420;2023-02-05T11:50:27;6.27;;;5.67;;
15708;SDS011;7954;51.914;8.420;2023-02-05T11:53:04;7.03;;;6.33;;
15708;SDS011;7954;51.914;8.420;2023-02-05T11:55:37;6.60;;;6.00;;
15708;SDS011;7954;51.914;8.420;2023-02-05T11:58:09;8.43;;;7.63;;
15708;SDS011;7954;51.914;8.420;2023-02-05T12:01:01;6.53;;;5.93;;
15708;SDS011;7954;51.914;8.420;2023-02-05T12:03:33;7.70;;;7.03;;
15708;SDS011;7954;51.914;8.420;2023-02-05T12:06:09;6.77;;;6.13;;
15708;SDS011;7954;51.914;8.420;2023-02-05T12:08:42;6.73;;;6.07;;
15708;SDS011;7954;51.914;8.420;2023-02-05T12:11:17;6.27;;;5.67;;
15708;SDS011;7954;51.914;8.420;2023-02-05T12:13:54;6.07;;;5.57;;
15708;SDS011;7954;51.914;8.420;2023-02-05T12:16:34;6.93;;;6.30;;
15708;SDS011;7954;51.914;8.420;2023-02-05T12:19:15;5.70;;;5.20;;
15708;SDS011;7954;51.914;8.420;2023-02-05T12:21:49;6.07;;;5.47;;
15708;SDS011;7954;51.914;8.420;2023-02-05T12:27:26;6.57;;;5.63;;
15708;SDS011;7954;51.914;8.420;2023-02-05T12:30:09;7.80;;;7.00;;
15708;SDS011;7954;51.914;8.420;2023-02-05T12:32:49;7.30;;;6.60;;
15708;SDS011;7954;51.914;8.420;2023-02-05T12:35:30;7.13;;;6.53;;
15708;SDS011;7954;51.914;8.420;2023-02-05T12:38:07;6.63;;;6.00;;
15708;SDS011;7954;51.914;8.420;2023-02-05T12:41:00;7.33;;;6.63;;
15708;SDS011;7954;51.914;8.420;2023-02-05T12:43:37;6.37;;;5.77;;
15708;SDS011;7954;51.914;8.420;2023-02-05T12:49:08;6.23;;;5.73;;
15708;SDS011;7954;51.914;8.420;2023-02-05T12:51:52;6.53;;;5.93;;
15708;SDS011;7954;51.914;8.420;2023-02-05T12:54:36;6.30;;;5.70;;
15708;SDS011;7954;51.914;8.420;2023-02-05T12:57:14;6.47;;;5.87;;
15708;SDS011;7954;51.914;8.420;2023-02-05T12:59:46;6.53;;;5.87;;
15708;SDS011;7954;51.914;8.420;2023-02-05T13:02:22;5.90;;;5.40;;
15708;SDS011;7954;51.914;8.420;2023-02-05T13:05:01;6.63;;;6.13;;
15708;SDS011;7954;51.914;8.420;2023-02-05T13:07:41;7.20;;;6.50;;
15708;SDS011;7954;51.914;8.420;2023-02-05T13:10:13;7.07;;;6.47;;
15708;SDS011;7954;51.914;8.420;2023-02-05T13:12:44;7.13;;;6.47;;
15708;SDS011;7954;51.914;8.420;2023-02-05T13:15:16;6.90;;;6.30;;
15708;SDS011;7954;51.914;8.420;2023-02-05T13:17:52;6.67;;;6.17;;
15708;SDS011;7954;51.914;8.420;2023-02-05T13:20:24;7.30;;;6.70;;
15708;SDS011;7954;51.914;8.420;2023-02-05T13:23:12;8.17;;;7.47;;
15708;SDS011;7954;51.914;8.420;2023-02-05T13:25:59;7.57;;;6.97;;
15708;SDS011;7954;51.914;8.420;2023-02-05T13:28:46;8.90;;;8.10;;
15708;SDS011;7954;51.914;8.420;2023-02-05T13:31:19;8.57;;;7.80;;
15708;SDS011;7954;51.914;8.420;2023-02-05T13:33:52;7.37;;;6.77;;
15708;SDS011;7954;51.914;8.420;2023-02-05T13:39:49;9.87;;;8.97;;
15708;SDS011;7954;51.914;8.420;2023-02-05T13:42:43;8.90;;;8.10;;
15708;SDS011;7954;51.914;8.420;2023-02-05T13:45:26;10.23;;;9.33;;
15708;SDS011;7954;51.914;8.420;2023-02-05T13:48:28;10.50;;;9.60;;
15708;SDS011;7954;51.914;8.420;2023-02-05T13:51:26;8.90;;;8.10;;
15708;SDS011;7954;51.914;8.420;2023-02-05T13:57:33;7.90;;;7.20;;
15708;SDS011;7954;51.914;8.420;2023-02-05T14:00:25;7.97;;;7.27;;
15708;SDS011;7954;51.914;8.420;2023-02-05T14:02:55;8.40;;;7.60;;
15708;SDS011;7954;51.914;8.420;2023-02-05T14:05:31;8.87;;;8.07;;
15708;SDS011;7954;51.914;8.420;2023-02-05T14:08:01;7.10;;;6.50;;
15708;SDS011;7954;51.914;8.420;2023-02-05T14:10:31;7.10;;;6.37;;
15708;SDS011;7954;51.914;8.420;2023-02-05T14:13:12;5.23;;;4.80;;
15708;SDS011;7954;51.914;8.420;2023-02-05T14:15:47;5.70;;;5.20;;
15708;SDS011;7954;51.914;8.420;2023-02-05T14:24:26;5.40;;;4.90;;
15708;SDS011;7954;51.914;8.420;2023-02-05T14:27:18;5.47;;;5.07;;
15708;SDS011;7954;51.914;8.420;2023-02-05T14:38:55;5.20;;;4.80;;
15708;SDS011;7954;51.914;8.420;2023-02-05T14:41:27;7.07;;;6.37;;
15708;SDS011;7954;51.914;8.420;2023-02-05T14:43:58;6.63;;;6.03;;
15708;SDS011;7954;51.914;8.420;2023-02-05T14:46:30;5.63;;;5.00;;
15708;SDS011;7954;51.914;8.420;2023-02-05T14:49:01;5.60;;;5.10;;
15708;SDS011;7954;51.914;8.420;2023-02-05T14:51:33;5.60;;;5.10;;
15708;SDS011;7954;51.914;8.420;2023-02-05T14:54:05;6.67;;;6.07;;
15708;SDS011;7954;51.914;8.420;2023-02-05T14:56:41;6.63;;;5.80;;
15708;SDS011;7954;51.914;8.420;2023-02-05T14:59:19;6.07;;;5.57;;
15708;SDS011;7954;51.914;8.420;2023-02-05T15:01:56;6.00;;;5.40;;
15708;SDS011;7954;51.914;8.420;2023-02-05T15:04:32;7.43;;;5.90;;
15708;SDS011;7954;51.914;8.420;2023-02-05T15:07:08;6.70;;;5.90;;
15708;SDS011;7954;51.914;8.420;2023-02-05T15:09:39;6.13;;;5.10;;
15708;SDS011;7954;51.914;8.420;2023-02-05T15:12:27;6.60;;;5.33;;
15708;SDS011;7954;51.914;8.420;2023-02-05T15:15:17;6.23;;;5.63;;
15708;SDS011;7954;51.914;8.420;2023-02-05T15:17:55;5.77;;;5.20;;
15708;SDS011;7954;51.914;8.420;2023-02-05T15:20:29;6.87;;;4.90;;
15708;SDS011;7954;51.914;8.420;2023-02-05T15:23:00;8.13;;;6.10;;
15708;SDS011;7954;51.914;8.420;2023-02-05T15:25:34;8.00;;;5.23;;
15708;SDS011;7954;51.914;8.420;2023-02-05T15:28:20;8.13;;;5.43;;
15708;SDS011;7954;51.914;8.420;2023-02-05T15:30:55;5.30;;;4.77;;
15708;SDS011;7954;51.914;8.420;2023-02-05T15:33:44;5.90;;;4.83;;
15708;SDS011;7954;51.914;8.420;2023-02-05T15:36:18;6.30;;;4.90;;
15708;SDS011;7954;51.914;8.420;2023-02-05T15:38:52;6.47;;;5.43;;
15708;SDS011;7954;51.914;8.420;2023-02-05T15:41:29;6.17;;;4.80;;
15708;SDS011;7954;51.914;8.420;2023-02-05T15:44:02;5.20;;;4.70;;
15708;SDS011;7954;51.914;8.420;2023-02-05T15:46:30;6.40;;;5.33;;
15708;SDS011;7954;51.914;8.420;2023-02-05T15:49:03;5.43;;;4.93;;
15708;SDS011;7954;51.914;8.420;2023-02-05T15:51:32;6.93;;;5.53;;
15708;SDS011;7954;51.914;8.420;2023-02-05T15:54:05;7.73;;;5.47;;
15708;SDS011;7954;51.914;8.420;2023-02-05T15:56:35;8.90;;;5.73;;
15708;SDS011;7954;51.914;8.420;2023-02-05T15:59:10;7.03;;;6.00;;
15708;SDS011;7954;51.914;8.420;2023-02-05T16:01:42;6.87;;;5.97;;
15708;SDS011;7954;51.914;8.420;2023-02-05T16:04:18;6.67;;;5.97;;